sensor_id;sensor_type;location;lat;lon;timestamp;P1;durP1;ratioP1;P2;durP2;ratioP2
43124;SDS011;49182;50.788;7.318;2023-04-01T00:00:27;1.35;;;0.43;;
43124;SDS011;49182;50.788;7.318;2023-04-01T00:02:53;2.83;;;0.47;;
43124;SDS011;49182;50.788;7.318;2023-04-01T00:05:22;1.27;;;0.43;;
43124;SDS011;49182;50.788;7.318;2023-04-01T00:07:48;0.50;;;0.30;;
43124;SDS011;49182;50.788;7.318;2023-04-01T00:10:15;2.33;;;0.40;;
43124;SDS011;49182;50.788;7.318;2023-04-01T00:12:42;2.28;;;0.50;;
43124;SDS011;49182;50.788;7.318;2023-04-01T00:15:10;0.98;;;0.30;;
43124;SDS011;49182;50.788;7.318;2023-04-01T00:17:38;2.72;;;0.40;;
43124;SDS011;49182;50.788;7.318;2023-04-01T00:20:05;1.35;;;0.30;;
43124;SDS011;49182;50.788;7.318;2023-04-01T00:22:34;4.82;;;0.52;;
43124;SDS011;49182;50.788;7.318;2023-04-01T00:25:01;2.17;;;0.60;;
43124;SDS011;49182;50.788;7.318;2023-04-01T00:27:28;2.90;;;0.60;;
43124;SDS011;49182;50.788;7.318;2023-04-01T00:29:55;1.88;;;0.50;;
43124;SDS011;49182;50.788;7.318;2023-04-01T00:32:21;2.28;;;0.50;;
43124;SDS011;49182;50.788;7.318;2023-04-01T00:34:49;2.35;;;0.35;;
43124;SDS011;49182;50.788;7.318;2023-04-01T00:37:16;2.70;;;0.57;;
43124;SDS011;49182;50.788;7.318;2023-04-01T00:39:44;1.25;;;0.38;;
43124;SDS011;49182;50.788;7.318;2023-04-01T00:42:11;3.22;;;0.60;;
43124;SDS011;49182;50.788;7.318;2023-04-01T00:44:38;1.00;;;0.35;;
43124;SDS011;49182;50.788;7.318;2023-04-01T00:47:05;2.75;;;0.60;;
43124;SDS011;49182;50.788;7.318;2023-04-01T00:49:33;1.73;;;0.52;;
43124;SDS011;49182;50.788;7.318;2023-04-01T00:52:04;4.90;;;0.80;;
43124;SDS011;49182;50.788;7.318;2023-04-01T00:54:33;1.50;;;0.57;;
43124;SDS011;49182;50.788;7.318;2023-04-01T00:57:03;1.95;;;0.60;;
43124;SDS011;49182;50.788;7.318;2023-04-01T00:59:33;3.33;;;0.50;;
43124;SDS011;49182;50.788;7.318;2023-04-01T01:02:02;2.70;;;0.52;;
43124;SDS011;49182;50.788;7.318;2023-04-01T01:04:32;3.05;;;0.52;;
43124;SDS011;49182;50.788;7.318;2023-04-01T01:07:03;2.40;;;0.63;;
43124;SDS011;49182;50.788;7.318;2023-04-01T01:09:45;3.20;;;0.43;;
43124;SDS011;49182;50.788;7.318;2023-04-01T01:12:20;3.05;;;0.70;;
43124;SDS011;49182;50.788;7.318;2023-04-01T01:17:28;3.97;;;0.75;;
43124;SDS011;49182;50.788;7.318;2023-04-01T01:23:34;0.52;;;0.28;;
43124;SDS011;49182;50.788;7.318;2023-04-01T01:26:12;1.73;;;0.50;;
43124;SDS011;49182;50.788;7.318;2023-04-01T01:29:07;3.03;;;0.55;;
43124;SDS011;49182;50.788;7.318;2023-04-01T01:31:46;1.27;;;0.50;;
43124;SDS011;49182;50.788;7.318;2023-04-01T01:34:23;2.10;;;0.50;;
43124;SDS011;49182;50.788;7.318;2023-04-01T01:37:01;2.00;;;0.38;;
43124;SDS011;49182;50.788;7.318;2023-04-01T01:39:36;1.50;;;0.45;;
43124;SDS011;49182;50.788;7.318;2023-04-01T01:42:04;4.63;;;0.65;;
43124;SDS011;49182;50.788;7.318;2023-04-01T01:44:34;0.87;;;0.30;;
43124;SDS011;49182;50.788;7.318;2023-04-01T01:47:04;2.38;;;0.35;;
43124;SDS011;49182;50.788;7.318;2023-04-01T01:49:32;1.48;;;0.40;;
43124;SDS011;49182;50.788;7.318;2023-04-01T01:52:03;2.70;;;0.30;;
43124;SDS011;49182;50.788;7.318;2023-04-01T01:54:29;3.75;;;0.40;;
43124;SDS011;49182;50.788;7.318;2023-04-01T01:56:57;0.70;;;0.20;;
43124;SDS011;49182;50.788;7.318;2023-04-01T01:59:31;2.17;;;0.30;;
43124;SDS011;49182;50.788;7.318;2023-04-01T02:02:01;1.17;;;0.38;;
43124;SDS011;49182;50.788;7.318;2023-04-01T02:04:29;0.38;;;0.10;;
43124;SDS011;49182;50.788;7.318;2023-04-01T02:06:59;0.68;;;0.20;;
43124;SDS011;49182;50.788;7.318;2023-04-01T02:09:30;0.93;;;0.20;;
43124;SDS011;49182;50.788;7.318;2023-04-01T02:11:58;1.52;;;0.20;;
43124;SDS011;49182;50.788;7.318;2023-04-01T02:14:35;0.77;;;0.38;;
43124;SDS011;49182;50.788;7.318;2023-04-01T02:17:08;1.70;;;0.45;;
43124;SDS011;49182;50.788;7.318;2023-04-01T02:19:38;0.95;;;0.30;;
43124;SDS011;49182;50.788;7.318;2023-04-01T02:22:08;2.70;;;0.50;;
43124;SDS011;49182;50.788;7.318;2023-04-01T02:24:39;1.02;;;0.22;;
43124;SDS011;49182;50.788;7.318;2023-04-01T02:27:08;2.50;;;0.35;;
43124;SDS011;49182;50.788;7.318;2023-04-01T02:29:35;1.92;;;0.40;;
43124;SDS011;49182;50.788;7.318;2023-04-01T02:32:06;1.25;;;0.30;;
43124;SDS011;49182;50.788;7.318;2023-04-01T02:34:35;0.30;;;0.10;;
43124;SDS011;49182;50.788;7.318;2023-04-01T02:37:03;2.35;;;0.40;;
43124;SDS011;49182;50.788;7.318;2023-04-01T02:39:30;1.90;;;0.20;;
43124;SDS011;49182;50.788;7.318;2023-04-01T02:41:59;0.73;;;0.30;;
43124;SDS011;49182;50.788;7.318;2023-04-01T02:44:25;1.40;;;0.30;;
43124;SDS011;49182;50.788;7.318;2023-04-01T02:46:52;0.75;;;0.30;;
43124;SDS011;49182;50.788;7.318;2023-04-01T02:49:19;2.67;;;0.30;;
43124;SDS011;49182;50.788;7.318;2023-04-01T02:51:46;2.40;;;0.55;;
43124;SDS011;49182;50.788;7.318;2023-04-01T02:54:12;1.77;;;0.60;;
43124;SDS011;49182;50.788;7.318;2023-04-01T02:56:40;2.25;;;0.20;;
43124;SDS011;49182;50.788;7.318;2023-04-01T02:59:08;2.53;;;0.40;;
43124;SDS011;49182;50.788;7.318;2023-04-01T03:01:35;0.70;;;0.28;;
43124;SDS011;49182;50.788;7.318;2023-04-01T03:04:01;2.03;;;0.43;;
43124;SDS011;49182;50.788;7.318;2023-04-01T03:06:28;1.33;;;0.40;;
43124;SDS011;49182;50.788;7.318;2023-04-01T03:08:55;1.20;;;0.40;;
43124;SDS011;49182;50.788;7.318;2023-04-01T03:11:22;2.25;;;0.40;;
43124;SDS011;49182;50.788;7.318;2023-04-01T03:13:48;1.63;;;0.30;;
43124;SDS011;49182;50.788;7.318;2023-04-01T03:16:16;1.10;;;0.30;;
43124;SDS011;49182;50.788;7.318;2023-04-01T03:18:43;1.73;;;0.52;;
43124;SDS011;49182;50.788;7.318;2023-04-01T03:21:13;2.80;;;0.40;;
43124;SDS011;49182;50.788;7.318;2023-04-01T03:23:42;1.23;;;0.32;;
43124;SDS011;49182;50.788;7.318;2023-04-01T03:26:08;1.67;;;0.45;;
43124;SDS011;49182;50.788;7.318;2023-04-01T03:28:36;1.77;;;0.43;;
43124;SDS011;49182;50.788;7.318;2023-04-01T03:31:03;7.18;;;0.40;;
43124;SDS011;49182;50.788;7.318;2023-04-01T03:33:37;1.05;;;0.20;;
43124;SDS011;49182;50.788;7.318;2023-04-01T03:36:04;1.25;;;0.30;;
43124;SDS011;49182;50.788;7.318;2023-04-01T03:38:34;2.40;;;0.40;;
43124;SDS011;49182;50.788;7.318;2023-04-01T03:41:01;1.65;;;0.50;;
43124;SDS011;49182;50.788;7.318;2023-04-01T03:43:30;1.00;;;0.30;;
43124;SDS011;49182;50.788;7.318;2023-04-01T03:45:56;2.78;;;0.35;;
43124;SDS011;49182;50.788;7.318;2023-04-01T03:48:24;0.63;;;0.38;;
43124;SDS011;49182;50.788;7.318;2023-04-01T03:50:52;1.58;;;0.30;;
43124;SDS011;49182;50.788;7.318;2023-04-01T03:53:19;2.15;;;0.38;;
43124;SDS011;49182;50.788;7.318;2023-04-01T03:55:46;2.60;;;0.43;;
43124;SDS011;49182;50.788;7.318;2023-04-01T03:58:14;1.98;;;0.35;;
43124;SDS011;49182;50.788;7.318;2023-04-01T04:00:40;0.30;;;0.20;;
43124;SDS011;49182;50.788;7.318;2023-04-01T04:03:08;0.60;;;0.20;;
43124;SDS011;49182;50.788;7.318;2023-04-01T04:05:35;0.95;;;0.20;;
43124;SDS011;49182;50.788;7.318;2023-04-01T04:08:03;1.08;;;0.35;;
43124;SDS011;49182;50.788;7.318;2023-04-01T04:10:31;0.45;;;0.20;;
43124;SDS011;49182;50.788;7.318;2023-04-01T04:12:57;0.68;;;0.10;;
43124;SDS011;49182;50.788;7.318;2023-04-01T04:15:28;1.45;;;0.20;;
43124;SDS011;49182;50.788;7.318;2023-04-01T04:17:54;0.70;;;0.20;;
43124;SDS011;49182;50.788;7.318;2023-04-01T04:20:21;0.73;;;0.30;;
43124;SDS011;49182;50.788;7.318;2023-04-01T04:22:48;0.52;;;0.20;;
43124;SDS011;49182;50.788;7.318;2023-04-01T04:25:16;0.13;;;0.10;;
43124;SDS011;49182;50.788;7.318;2023-04-01T04:27:43;1.17;;;0.30;;
43124;SDS011;49182;50.788;7.318;2023-04-01T04:30:12;0.82;;;0.20;;
43124;SDS011;49182;50.788;7.318;2023-04-01T04:32:39;1.45;;;0.28;;
43124;SDS011;49182;50.788;7.318;2023-04-01T04:35:06;0.68;;;0.30;;
43124;SDS011;49182;50.788;7.318;2023-04-01T04:37:33;0.20;;;0.15;;
43124;SDS011;49182;50.788;7.318;2023-04-01T04:40:00;0.85;;;0.20;;
43124;SDS011;49182;50.788;7.318;2023-04-01T04:42:29;0.55;;;0.13;;
43124;SDS011;49182;50.788;7.318;2023-04-01T04:45:02;1.25;;;0.20;;
43124;SDS011;49182;50.788;7.318;2023-04-01T04:47:30;1.08;;;0.43;;
43124;SDS011;49182;50.788;7.318;2023-04-01T04:49:57;0.28;;;0.20;;
43124;SDS011;49182;50.788;7.318;2023-04-01T04:52:24;2.38;;;0.30;;
43124;SDS011;49182;50.788;7.318;2023-04-01T04:54:51;0.40;;;0.20;;
43124;SDS011;49182;50.788;7.318;2023-04-01T04:57:17;1.63;;;0.38;;
43124;SDS011;49182;50.788;7.318;2023-04-01T04:59:52;0.75;;;0.20;;
43124;SDS011;49182;50.788;7.318;2023-04-01T05:02:31;0.55;;;0.20;;
43124;SDS011;49182;50.788;7.318;2023-04-01T05:04:57;1.25;;;0.28;;
43124;SDS011;49182;50.788;7.318;2023-04-01T05:07:24;1.65;;;0.30;;
43124;SDS011;49182;50.788;7.318;2023-04-01T05:09:50;0.63;;;0.25;;
43124;SDS011;49182;50.788;7.318;2023-04-01T05:12:17;0.32;;;0.10;;
43124;SDS011;49182;50.788;7.318;2023-04-01T05:14:56;0.28;;;0.13;;
43124;SDS011;49182;50.788;7.318;2023-04-01T05:17:23;1.02;;;0.28;;
43124;SDS011;49182;50.788;7.318;2023-04-01T05:19:49;0.52;;;0.20;;
43124;SDS011;49182;50.788;7.318;2023-04-01T05:22:16;0.10;;;0.10;;
43124;SDS011;49182;50.788;7.318;2023-04-01T05:24:43;1.52;;;0.40;;
43124;SDS011;49182;50.788;7.318;2023-04-01T05:27:10;0.20;;;0.10;;
43124;SDS011;49182;50.788;7.318;2023-04-01T05:29:39;0.80;;;0.20;;
43124;SDS011;49182;50.788;7.318;2023-04-01T05:32:11;0.83;;;0.30;;
43124;SDS011;49182;50.788;7.318;2023-04-01T05:34:38;3.47;;;0.32;;
43124;SDS011;49182;50.788;7.318;2023-04-01T05:37:05;0.98;;;0.30;;
43124;SDS011;49182;50.788;7.318;2023-04-01T05:39:31;0.55;;;0.20;;
43124;SDS011;49182;50.788;7.318;2023-04-01T05:42:01;0.60;;;0.20;;
43124;SDS011;49182;50.788;7.318;2023-04-01T05:44:28;0.47;;;0.10;;
43124;SDS011;49182;50.788;7.318;2023-04-01T05:47:01;0.65;;;0.22;;
43124;SDS011;49182;50.788;7.318;2023-04-01T05:49:30;0.65;;;0.10;;
43124;SDS011;49182;50.788;7.318;2023-04-01T05:51:56;1.45;;;0.30;;
43124;SDS011;49182;50.788;7.318;2023-04-01T05:54:23;1.67;;;0.32;;
43124;SDS011;49182;50.788;7.318;2023-04-01T05:56:50;0.52;;;0.10;;
43124;SDS011;49182;50.788;7.318;2023-04-01T05:59:18;0.32;;;0.20;;
43124;SDS011;49182;50.788;7.318;2023-04-01T06:01:45;0.25;;;0.20;;
43124;SDS011;49182;50.788;7.318;2023-04-01T06:04:15;0.57;;;0.22;;
43124;SDS011;49182;50.788;7.318;2023-04-01T06:06:45;0.65;;;0.30;;
43124;SDS011;49182;50.788;7.318;2023-04-01T06:09:13;0.68;;;0.20;;
43124;SDS011;49182;50.788;7.318;2023-04-01T06:11:56;0.68;;;0.20;;
43124;SDS011;49182;50.788;7.318;2023-04-01T06:14:44;0.47;;;0.30;;
43124;SDS011;49182;50.788;7.318;2023-04-01T06:17:19;3.95;;;0.63;;
43124;SDS011;49182;50.788;7.318;2023-04-01T06:19:54;1.08;;;0.32;;
43124;SDS011;49182;50.788;7.318;2023-04-01T06:22:45;1.02;;;0.35;;
43124;SDS011;49182;50.788;7.318;2023-04-01T06:25:26;0.38;;;0.25;;
43124;SDS011;49182;50.788;7.318;2023-04-01T06:28:07;4.63;;;0.40;;
43124;SDS011;49182;50.788;7.318;2023-04-01T06:30:57;1.00;;;0.20;;
43124;SDS011;49182;50.788;7.318;2023-04-01T06:33:40;0.55;;;0.28;;
43124;SDS011;49182;50.788;7.318;2023-04-01T06:39:20;1.40;;;0.50;;
43124;SDS011;49182;50.788;7.318;2023-04-01T06:41:59;4.03;;;0.63;;
43124;SDS011;49182;50.788;7.318;2023-04-01T06:44:41;1.10;;;0.40;;
43124;SDS011;49182;50.788;7.318;2023-04-01T06:47:41;2.05;;;0.38;;
43124;SDS011;49182;50.788;7.318;2023-04-01T06:50:36;0.50;;;0.20;;
43124;SDS011;49182;50.788;7.318;2023-04-01T06:53:30;1.02;;;0.30;;
43124;SDS011;49182;50.788;7.318;2023-04-01T06:56:21;0.57;;;0.30;;
43124;SDS011;49182;50.788;7.318;2023-04-01T06:58:58;1.20;;;0.38;;
43124;SDS011;49182;50.788;7.318;2023-04-01T07:01:32;1.95;;;0.30;;
43124;SDS011;49182;50.788;7.318;2023-04-01T07:04:05;1.80;;;0.40;;
43124;SDS011;49182;50.788;7.318;2023-04-01T07:06:36;2.13;;;0.60;;
43124;SDS011;49182;50.788;7.318;2023-04-01T07:09:10;0.90;;;0.40;;
43124;SDS011;49182;50.788;7.318;2023-04-01T07:12:02;1.15;;;0.40;;
43124;SDS011;49182;50.788;7.318;2023-04-01T07:14:59;4.95;;;0.75;;
43124;SDS011;49182;50.788;7.318;2023-04-01T07:17:30;3.45;;;0.70;;
43124;SDS011;49182;50.788;7.318;2023-04-01T07:20:01;2.05;;;0.65;;
43124;SDS011;49182;50.788;7.318;2023-04-01T07:22:32;1.83;;;0.65;;
43124;SDS011;49182;50.788;7.318;2023-04-01T07:25:20;2.33;;;0.70;;
43124;SDS011;49182;50.788;7.318;2023-04-01T07:28:01;2.10;;;0.68;;
43124;SDS011;49182;50.788;7.318;2023-04-01T07:30:33;1.80;;;0.60;;
43124;SDS011;49182;50.788;7.318;2023-04-01T07:33:11;2.75;;;1.05;;
43124;SDS011;49182;50.788;7.318;2023-04-01T07:35:43;4.13;;;1.20;;
43124;SDS011;49182;50.788;7.318;2023-04-01T07:38:16;3.42;;;1.40;;
43124;SDS011;49182;50.788;7.318;2023-04-01T07:40:50;3.50;;;1.45;;
43124;SDS011;49182;50.788;7.318;2023-04-01T07:43:42;4.88;;;1.63;;
43124;SDS011;49182;50.788;7.318;2023-04-01T07:46:37;5.88;;;2.00;;
43124;SDS011;49182;50.788;7.318;2023-04-01T07:49:14;5.97;;;2.10;;
43124;SDS011;49182;50.788;7.318;2023-04-01T07:51:45;5.90;;;2.10;;
43124;SDS011;49182;50.788;7.318;2023-04-01T07:54:19;4.50;;;1.77;;
43124;SDS011;49182;50.788;7.318;2023-04-01T07:56:52;7.68;;;2.38;;
43124;SDS011;49182;50.788;7.318;2023-04-01T07:59:45;5.30;;;1.90;;
43124;SDS011;49182;50.788;7.318;2023-04-01T08:02:27;4.60;;;1.83;;
43124;SDS011;49182;50.788;7.318;2023-04-01T08:05:04;6.10;;;2.60;;
43124;SDS011;49182;50.788;7.318;2023-04-01T08:07:44;6.15;;;2.08;;
43124;SDS011;49182;50.788;7.318;2023-04-01T08:10:39;5.25;;;1.88;;
43124;SDS011;49182;50.788;7.318;2023-04-01T08:13:33;5.88;;;2.10;;
43124;SDS011;49182;50.788;7.318;2023-04-01T08:16:32;4.93;;;1.17;;
43124;SDS011;49182;50.788;7.318;2023-04-01T08:19:09;4.03;;;1.60;;
43124;SDS011;49182;50.788;7.318;2023-04-01T08:21:45;1.83;;;0.82;;
43124;SDS011;49182;50.788;7.318;2023-04-01T08:24:23;2.53;;;0.80;;
43124;SDS011;49182;50.788;7.318;2023-04-01T08:27:12;1.65;;;0.57;;
43124;SDS011;49182;50.788;7.318;2023-04-01T08:29:46;1.55;;;0.70;;
43124;SDS011;49182;50.788;7.318;2023-04-01T08:32:20;2.40;;;0.65;;
43124;SDS011;49182;50.788;7.318;2023-04-01T08:34:57;1.52;;;0.73;;
43124;SDS011;49182;50.788;7.318;2023-04-01T08:37:36;1.90;;;0.57;;
43124;SDS011;49182;50.788;7.318;2023-04-01T08:40:14;1.08;;;0.50;;
43124;SDS011;49182;50.788;7.318;2023-04-01T08:42:57;2.17;;;0.63;;
43124;SDS011;49182;50.788;7.318;2023-04-01T08:45:42;1.27;;;0.50;;
43124;SDS011;49182;50.788;7.318;2023-04-01T08:48:29;2.70;;;0.75;;
43124;SDS011;49182;50.788;7.318;2023-04-01T08:51:16;0.55;;;0.40;;
43124;SDS011;49182;50.788;7.318;2023-04-01T08:54:03;1.70;;;0.50;;
43124;SDS011;49182;50.788;7.318;2023-04-01T08:56:58;1.05;;;0.50;;
43124;SDS011;49182;50.788;7.318;2023-04-01T08:59:41;0.75;;;0.30;;
43124;SDS011;49182;50.788;7.318;2023-04-01T09:03:02;2.60;;;0.70;;
43124;SDS011;49182;50.788;7.318;2023-04-01T09:05:54;1.42;;;0.40;;
43124;SDS011;49182;50.788;7.318;2023-04-01T09:08:42;1.50;;;0.53;;
43124;SDS011;49182;50.788;7.318;2023-04-01T09:11:22;0.80;;;0.40;;
43124;SDS011;49182;50.788;7.318;2023-04-01T09:14:21;2.67;;;0.95;;
43124;SDS011;49182;50.788;7.318;2023-04-01T09:17:20;0.55;;;0.38;;
43124;SDS011;49182;50.788;7.318;2023-04-01T09:20:19;1.52;;;0.60;;
43124;SDS011;49182;50.788;7.318;2023-04-01T09:23:13;1.35;;;0.40;;
43124;SDS011;49182;50.788;7.318;2023-04-01T09:25:54;5.55;;;0.45;;
43124;SDS011;49182;50.788;7.318;2023-04-01T09:28:34;3.13;;;0.60;;
43124;SDS011;49182;50.788;7.318;2023-04-01T09:34:25;0.85;;;0.43;;
43124;SDS011;49182;50.788;7.318;2023-04-01T09:37:20;1.25;;;0.35;;
43124;SDS011;49182;50.788;7.318;2023-04-01T09:40:02;1.35;;;0.35;;
43124;SDS011;49182;50.788;7.318;2023-04-01T09:42:44;1.23;;;0.47;;
43124;SDS011;49182;50.788;7.318;2023-04-01T09:48:05;0.60;;;0.30;;
43124;SDS011;49182;50.788;7.318;2023-04-01T09:50:43;1.15;;;0.40;;
43124;SDS011;49182;50.788;7.318;2023-04-01T09:53:28;0.70;;;0.35;;
43124;SDS011;49182;50.788;7.318;2023-04-01T10:05:35;0.98;;;0.40;;
43124;SDS011;49182;50.788;7.318;2023-04-01T10:08:28;1.30;;;0.55;;
43124;SDS011;49182;50.788;7.318;2023-04-01T10:11:22;0.82;;;0.50;;
43124;SDS011;49182;50.788;7.318;2023-04-01T10:14:23;1.67;;;0.40;;
43124;SDS011;49182;50.788;7.318;2023-04-01T10:17:14;2.25;;;0.60;;
43124;SDS011;49182;50.788;7.318;2023-04-01T10:20:09;1.23;;;0.50;;
43124;SDS011;49182;50.788;7.318;2023-04-01T10:28:34;0.65;;;0.40;;
43124;SDS011;49182;50.788;7.318;2023-04-01T10:31:48;1.45;;;0.50;;
43124;SDS011;49182;50.788;7.318;2023-04-01T10:37:39;0.85;;;0.40;;
43124;SDS011;49182;50.788;7.318;2023-04-01T10:40:26;2.67;;;0.63;;
43124;SDS011;49182;50.788;7.318;2023-04-01T10:43:36;1.13;;;0.50;;
43124;SDS011;49182;50.788;7.318;2023-04-01T10:46:28;2.83;;;0.70;;
43124;SDS011;49182;50.788;7.318;2023-04-01T10:49:31;0.68;;;0.43;;
43124;SDS011;49182;50.788;7.318;2023-04-01T10:52:12;1.15;;;0.50;;
43124;SDS011;49182;50.788;7.318;2023-04-01T10:55:31;1.60;;;0.60;;
43124;SDS011;49182;50.788;7.318;2023-04-01T10:58:47;0.85;;;0.45;;
43124;SDS011;49182;50.788;7.318;2023-04-01T11:02:03;1.85;;;0.55;;
43124;SDS011;49182;50.788;7.318;2023-04-01T11:05:26;0.73;;;0.40;;
43124;SDS011;49182;50.788;7.318;2023-04-01T11:08:25;1.17;;;0.60;;
43124;SDS011;49182;50.788;7.318;2023-04-01T11:11:27;1.80;;;0.70;;
43124;SDS011;49182;50.788;7.318;2023-04-01T11:27:50;2.17;;;0.60;;
43124;SDS011;49182;50.788;7.318;2023-04-01T11:30:36;0.77;;;0.45;;
43124;SDS011;49182;50.788;7.318;2023-04-01T11:33:14;0.63;;;0.40;;
43124;SDS011;49182;50.788;7.318;2023-04-01T11:35:53;2.15;;;0.50;;
43124;SDS011;49182;50.788;7.318;2023-04-01T11:38:29;0.80;;;0.32;;
43124;SDS011;49182;50.788;7.318;2023-04-01T11:41:36;1.38;;;0.50;;
43124;SDS011;49182;50.788;7.318;2023-04-01T11:44:47;1.65;;;0.60;;
43124;SDS011;49182;50.788;7.318;2023-04-01T11:47:43;1.60;;;0.35;;
43124;SDS011;49182;50.788;7.318;2023-04-01T11:50:21;1.27;;;0.50;;
43124;SDS011;49182;50.788;7.318;2023-04-01T11:53:02;0.60;;;0.40;;
43124;SDS011;49182;50.788;7.318;2023-04-01T11:55:47;0.73;;;0.32;;
43124;SDS011;49182;50.788;7.318;2023-04-01T11:58:25;0.82;;;0.40;;
43124;SDS011;49182;50.788;7.318;2023-04-01T12:01:10;2.03;;;0.57;;
43124;SDS011;49182;50.788;7.318;2023-04-01T12:03:51;1.17;;;0.50;;
43124;SDS011;49182;50.788;7.318;2023-04-01T12:06:51;1.33;;;0.88;;
43124;SDS011;49182;50.788;7.318;2023-04-01T12:09:29;1.23;;;0.50;;
43124;SDS011;49182;50.788;7.318;2023-04-01T12:12:10;0.80;;;0.47;;
43124;SDS011;49182;50.788;7.318;2023-04-01T12:14:45;0.88;;;0.50;;
43124;SDS011;49182;50.788;7.318;2023-04-01T12:17:24;2.88;;;0.70;;
43124;SDS011;49182;50.788;7.318;2023-04-01T12:20:09;1.27;;;0.50;;
43124;SDS011;49182;50.788;7.318;2023-04-01T12:22:49;2.40;;;0.82;;
43124;SDS011;49182;50.788;7.318;2023-04-01T12:25:27;2.53;;;0.75;;
43124;SDS011;49182;50.788;7.318;2023-04-01T12:28:14;0.93;;;0.50;;
43124;SDS011;49182;50.788;7.318;2023-04-01T12:30:53;1.02;;;0.50;;
43124;SDS011;49182;50.788;7.318;2023-04-01T12:33:42;1.52;;;0.60;;
43124;SDS011;49182;50.788;7.318;2023-04-01T12:36:20;1.30;;;0.60;;
43124;SDS011;49182;50.788;7.318;2023-04-01T12:39:13;3.47;;;0.77;;
43124;SDS011;49182;50.788;7.318;2023-04-01T12:41:57;2.72;;;0.50;;
43124;SDS011;49182;50.788;7.318;2023-04-01T12:44:33;2.10;;;0.70;;
43124;SDS011;49182;50.788;7.318;2023-04-01T12:47:25;0.90;;;0.47;;
43124;SDS011;49182;50.788;7.318;2023-04-01T12:50:16;1.02;;;0.55;;
43124;SDS011;49182;50.788;7.318;2023-04-01T12:53:04;1.45;;;0.65;;
43124;SDS011;49182;50.788;7.318;2023-04-01T12:55:40;1.52;;;0.60;;
43124;SDS011;49182;50.788;7.318;2023-04-01T12:58:17;2.38;;;0.60;;
43124;SDS011;49182;50.788;7.318;2023-04-01T13:01:03;2.58;;;0.68;;
43124;SDS011;49182;50.788;7.318;2023-04-01T13:06:42;0.80;;;0.47;;
43124;SDS011;49182;50.788;7.318;2023-04-01T13:09:21;1.38;;;0.52;;
43124;SDS011;49182;50.788;7.318;2023-04-01T13:11:56;1.02;;;0.50;;
43124;SDS011;49182;50.788;7.318;2023-04-01T13:14:48;0.63;;;0.43;;
43124;SDS011;49182;50.788;7.318;2023-04-01T13:17:25;1.27;;;0.60;;
43124;SDS011;49182;50.788;7.318;2023-04-01T13:20:02;0.70;;;0.45;;
43124;SDS011;49182;50.788;7.318;2023-04-01T13:22:37;1.95;;;0.63;;
43124;SDS011;49182;50.788;7.318;2023-04-01T13:25:19;2.63;;;0.90;;
43124;SDS011;49182;50.788;7.318;2023-04-01T13:27:53;1.15;;;0.60;;
43124;SDS011;49182;50.788;7.318;2023-04-01T13:30:27;1.13;;;0.50;;
43124;SDS011;49182;50.788;7.318;2023-04-01T13:33:00;0.90;;;0.50;;
43124;SDS011;49182;50.788;7.318;2023-04-01T13:35:35;0.70;;;0.40;;
43124;SDS011;49182;50.788;7.318;2023-04-01T13:41:20;3.33;;;0.50;;
43124;SDS011;49182;50.788;7.318;2023-04-01T13:43:57;1.40;;;0.57;;
43124;SDS011;49182;50.788;7.318;2023-04-01T13:49:23;1.33;;;0.50;;
43124;SDS011;49182;50.788;7.318;2023-04-01T13:52:19;2.47;;;0.50;;
43124;SDS011;49182;50.788;7.318;2023-04-01T13:55:02;2.33;;;0.65;;
43124;SDS011;49182;50.788;7.318;2023-04-01T13:57:59;1.50;;;0.68;;
43124;SDS011;49182;50.788;7.318;2023-04-01T14:00:42;2.75;;;0.85;;
43124;SDS011;49182;50.788;7.318;2023-04-01T14:03:25;0.80;;;0.43;;
43124;SDS011;49182;50.788;7.318;2023-04-01T14:06:00;1.63;;;0.60;;
43124;SDS011;49182;50.788;7.318;2023-04-01T14:11:28;3.28;;;0.80;;
43124;SDS011;49182;50.788;7.318;2023-04-01T14:14:05;3.25;;;1.15;;
43124;SDS011;49182;50.788;7.318;2023-04-01T14:16:51;1.92;;;0.70;;
43124;SDS011;49182;50.788;7.318;2023-04-01T14:19:29;1.50;;;0.60;;
43124;SDS011;49182;50.788;7.318;2023-04-01T14:22:05;0.52;;;0.40;;
43124;SDS011;49182;50.788;7.318;2023-04-01T14:27:50;1.23;;;0.52;;
43124;SDS011;49182;50.788;7.318;2023-04-01T14:30:37;1.20;;;0.65;;
43124;SDS011;49182;50.788;7.318;2023-04-01T14:33:17;1.20;;;0.57;;
43124;SDS011;49182;50.788;7.318;2023-04-01T14:35:58;1.65;;;0.70;;
43124;SDS011;49182;50.788;7.318;2023-04-01T14:38:47;2.08;;;0.60;;
43124;SDS011;49182;50.788;7.318;2023-04-01T14:41:30;1.85;;;0.70;;
43124;SDS011;49182;50.788;7.318;2023-04-01T14:44:15;2.05;;;0.93;;
43124;SDS011;49182;50.788;7.318;2023-04-01T14:49:53;1.23;;;0.63;;
43124;SDS011;49182;50.788;7.318;2023-04-01T14:52:31;2.42;;;1.00;;
43124;SDS011;49182;50.788;7.318;2023-04-01T14:55:00;1.65;;;0.60;;
43124;SDS011;49182;50.788;7.318;2023-04-01T14:57:27;1.35;;;0.65;;
43124;SDS011;49182;50.788;7.318;2023-04-01T14:59:59;1.55;;;0.80;;
43124;SDS011;49182;50.788;7.318;2023-04-01T15:02:37;2.25;;;0.70;;
43124;SDS011;49182;50.788;7.318;2023-04-01T15:05:25;1.90;;;0.82;;
43124;SDS011;49182;50.788;7.318;2023-04-01T15:08:03;1.33;;;0.70;;
43124;SDS011;49182;50.788;7.318;2023-04-01T15:10:40;1.30;;;0.60;;
43124;SDS011;49182;50.788;7.318;2023-04-01T15:13:16;2.58;;;0.70;;
43124;SDS011;49182;50.788;7.318;2023-04-01T15:16:02;1.40;;;0.70;;
43124;SDS011;49182;50.788;7.318;2023-04-01T15:18:38;1.40;;;0.68;;
43124;SDS011;49182;50.788;7.318;2023-04-01T15:21:15;1.13;;;0.60;;
43124;SDS011;49182;50.788;7.318;2023-04-01T15:23:52;1.48;;;0.70;;
43124;SDS011;49182;50.788;7.318;2023-04-01T15:26:29;1.33;;;0.60;;
43124;SDS011;49182;50.788;7.318;2023-04-01T15:29:12;3.20;;;0.60;;
43124;SDS011;49182;50.788;7.318;2023-04-01T15:31:55;4.10;;;1.45;;
43124;SDS011;49182;50.788;7.318;2023-04-01T15:34:30;1.88;;;0.70;;
43124;SDS011;49182;50.788;7.318;2023-04-01T15:37:04;4.45;;;0.90;;
43124;SDS011;49182;50.788;7.318;2023-04-01T15:39:43;5.18;;;1.10;;
43124;SDS011;49182;50.788;7.318;2023-04-01T15:42:29;2.65;;;0.70;;
43124;SDS011;49182;50.788;7.318;2023-04-01T15:45:10;1.95;;;0.90;;
43124;SDS011;49182;50.788;7.318;2023-04-01T15:47:45;4.30;;;0.85;;
43124;SDS011;49182;50.788;7.318;2023-04-01T15:50:34;2.30;;;0.73;;
43124;SDS011;49182;50.788;7.318;2023-04-01T15:53:22;1.15;;;0.63;;
43124;SDS011;49182;50.788;7.318;2023-04-01T15:55:59;1.63;;;0.82;;
43124;SDS011;49182;50.788;7.318;2023-04-01T15:58:44;1.90;;;0.88;;
43124;SDS011;49182;50.788;7.318;2023-04-01T16:01:22;3.92;;;1.17;;
43124;SDS011;49182;50.788;7.318;2023-04-01T16:03:56;2.42;;;1.08;;
43124;SDS011;49182;50.788;7.318;2023-04-01T16:06:35;2.10;;;0.90;;
43124;SDS011;49182;50.788;7.318;2023-04-01T16:09:30;3.20;;;1.17;;
43124;SDS011;49182;50.788;7.318;2023-04-01T16:12:12;2.22;;;1.05;;
43124;SDS011;49182;50.788;7.318;2023-04-01T16:14:44;1.83;;;0.98;;
43124;SDS011;49182;50.788;7.318;2023-04-01T16:17:29;2.88;;;1.00;;
43124;SDS011;49182;50.788;7.318;2023-04-01T16:20:12;2.72;;;1.23;;
43124;SDS011;49182;50.788;7.318;2023-04-01T16:22:45;2.78;;;1.30;;
43124;SDS011;49182;50.788;7.318;2023-04-01T16:25:25;5.60;;;1.60;;
43124;SDS011;49182;50.788;7.318;2023-04-01T16:28:01;3.85;;;1.23;;
43124;SDS011;49182;50.788;7.318;2023-04-01T16:30:42;6.72;;;2.70;;
43124;SDS011;49182;50.788;7.318;2023-04-01T16:38:16;2.33;;;1.05;;
43124;SDS011;49182;50.788;7.318;2023-04-01T16:40:52;3.08;;;1.33;;
43124;SDS011;49182;50.788;7.318;2023-04-01T16:43:35;5.80;;;2.78;;
43124;SDS011;49182;50.788;7.318;2023-04-01T16:46:30;5.95;;;2.78;;
43124;SDS011;49182;50.788;7.318;2023-04-01T16:49:01;4.30;;;1.40;;
43124;SDS011;49182;50.788;7.318;2023-04-01T16:51:41;3.40;;;1.60;;
43124;SDS011;49182;50.788;7.318;2023-04-01T16:54:14;3.85;;;1.70;;
43124;SDS011;49182;50.788;7.318;2023-04-01T16:56:55;4.68;;;2.20;;
43124;SDS011;49182;50.788;7.318;2023-04-01T16:59:29;3.50;;;1.77;;